Time;durP1;ratioP1;P1;durP2;ratioP2;P2;SDS_P1;SDS_P2;PMS_P1;PMS_P2;Temp;Humidity;BMP_temperature;BMP_pressure;BME280_temperature;BME280_humidity;BME280_pressure;Samples;Min_cycle;Max_cycle;Signal;HPM_P1;HPM_P2
2022/01/18 00:01:44;;;;;;;7.97;5.70;;;;;;;;;;5016997;28;20223;-89
2022/01/18 00:04:12;;;;;;;9.70;6.03;;;;;;;;;;5027768;28;20228;-89
2022/01/18 00:06:42;;;;;;;8.67;6.13;;;;;;;;;;5048325;28;20198;-89
2022/01/18 00:09:21;;;;;;;9.33;6.23;;;;;;;;;;5053326;28;20219;-89
2022/01/18 00:11:56;;;;;;;7.03;5.20;;;;;;;;;;5034940;28;20214;-89
2022/01/18 00:14:26;;;;;;;9.63;5.77;;;;;;;;;;5038576;28;20210;-89
2022/01/18 00:17:15;;;;;;;8.60;5.83;;;;;;;;;;5055996;28;20206;-88
2022/01/18 00:19:52;;;;;;;7.90;5.80;;;;;;;;;;5044286;28;20206;-89
2022/01/18 00:22:19;;;;;;;8.73;5.60;;;;;;;;;;5020095;28;20647;-89
2022/01/18 00:24:47;;;;;;;8.63;5.50;;;;;;;;;;5044330;28;20206;-89
2022/01/18 00:27:16;;;;;;;10.63;5.73;;;;;;;;;;5036023;28;20207;-89
2022/01/18 00:29:47;;;;;;;9.70;6.93;;;;;;;;;;5033980;28;20258;-89
2022/01/18 00:32:22;;;;;;;8.87;6.50;;;;;;;;;;5038281;28;20207;-89
2022/01/18 00:34:55;;;;;;;6.07;5.10;;;;;;;;;;5044331;28;20214;-89
2022/01/18 00:37:33;;;;;;;8.33;5.93;;;;;;;;;;5036075;28;20198;-89
2022/01/18 00:40:00;;;;;;;8.27;5.70;;;;;;;;;;5036438;28;20252;-89
2022/01/18 00:42:27;;;;;;;9.27;6.03;;;;;;;;;;5042532;28;20199;-89
2022/01/18 00:44:55;;;;;;;9.03;5.87;;;;;;;;;;5035652;28;20264;-89
2022/01/18 00:47:22;;;;;;;10.13;6.07;;;;;;;;;;5032452;28;20264;-89
2022/01/18 00:49:57;;;;;;;9.20;5.90;;;;;;;;;;5054941;28;20309;-89
2022/01/18 00:52:26;;;;;;;10.47;6.10;;;;;;;;;;5042523;28;20260;-89
2022/01/18 00:54:54;;;;;;;8.23;6.13;;;;;;;;;;5034727;28;20458;-89
2022/01/18 00:57:21;;;;;;;8.53;6.50;;;;;;;;;;5035262;28;20272;-88
2022/01/18 00:59:48;;;;;;;9.43;6.43;;;;;;;;;;5044005;28;20256;-89
2022/01/18 01:02:16;;;;;;;9.07;6.03;;;;;;;;;;5016526;28;20211;-89
2022/01/18 01:04:47;;;;;;;9.73;5.73;;;;;;;;;;5030687;28;20214;-89
2022/01/18 01:07:15;;;;;;;9.93;6.57;;;;;;;;;;5043298;28;20648;-88
2022/01/18 01:09:44;;;;;;;7.33;5.00;;;;;;;;;;5035631;28;20300;-90
2022/01/18 01:12:13;;;;;;;9.23;5.97;;;;;;;;;;5042688;28;20211;-89
2022/01/18 01:14:41;;;;;;;10.00;5.73;;;;;;;;;;5042738;28;20267;-89
2022/01/18 01:17:22;;;;;;;7.03;5.43;;;;;;;;;;5036689;28;20210;-90
2022/01/18 01:32:09;;;;;;;9.83;6.47;;;;;;;;;;5046051;28;20202;-92
2022/01/18 01:34:32;;;;;;;7.60;5.87;;;;;;;;;;5051752;28;20249;-90
2022/01/18 01:41:40;;;;;;;8.87;5.63;;;;;;;;;;5054247;28;20212;-88
2022/01/18 01:43:10;;;;;;;7.90;5.60;;;;;;;;;;5046772;28;20633;-89
2022/01/18 01:45:38;;;;;;;6.67;5.60;;;;;;;;;;5034524;28;20273;-89
2022/01/18 01:48:05;;;;;;;8.60;5.30;;;;;;;;;;5032881;28;20234;-89
2022/01/18 01:50:42;;;;;;;7.93;6.03;;;;;;;;;;5046041;28;20256;-89
2022/01/18 01:53:10;;;;;;;7.27;5.30;;;;;;;;;;5035597;28;20202;-89
2022/01/18 01:55:38;;;;;;;8.60;5.80;;;;;;;;;;5034831;28;20553;-89
2022/01/18 01:58:06;;;;;;;9.20;6.03;;;;;;;;;;5035432;28;20285;-90
2022/01/18 02:00:34;;;;;;;7.73;5.57;;;;;;;;;;5034383;28;20211;-89
2022/01/18 02:03:02;;;;;;;10.23;5.30;;;;;;;;;;5044003;28;20208;-89
2022/01/18 02:05:29;;;;;;;8.90;5.60;;;;;;;;;;5048504;28;20680;-89
2022/01/18 02:07:56;;;;;;;11.30;6.37;;;;;;;;;;5027367;28;20281;-91
2022/01/18 02:10:23;;;;;;;8.03;5.70;;;;;;;;;;5039508;28;20305;-89
2022/01/18 02:12:51;;;;;;;11.17;6.00;;;;;;;;;;5049288;28;20210;-89
2022/01/18 02:15:20;;;;;;;8.37;5.43;;;;;;;;;;5034869;28;20241;-89
2022/01/18 02:23:18;;;;;;;7.77;5.57;;;;;;;;;;5026684;28;20209;-89
2022/01/18 02:25:46;;;;;;;7.90;4.97;;;;;;;;;;5034433;28;20288;-89
2022/01/18 02:28:14;;;;;;;7.87;5.53;;;;;;;;;;5033225;28;20276;-90
2022/01/18 02:30:41;;;;;;;9.23;6.00;;;;;;;;;;5042242;28;20214;-89
2022/01/18 02:33:08;;;;;;;9.23;5.50;;;;;;;;;;5054213;28;20256;-90
2022/01/18 02:35:38;;;;;;;10.17;6.40;;;;;;;;;;5041475;28;20227;-91
2022/01/18 02:38:06;;;;;;;6.87;5.63;;;;;;;;;;5029095;28;20227;-89
2022/01/18 02:40:34;;;;;;;6.70;5.23;;;;;;;;;;5053949;28;20640;-89
2022/01/18 02:43:46;;;;;;;7.63;5.60;;;;;;;;;;5042786;28;20214;-90
2022/01/18 02:45:50;;;;;;;7.33;5.33;;;;;;;;;;5034668;28;20206;-89
2022/01/18 02:48:18;;;;;;;7.37;5.23;;;;;;;;;;5025783;28;20230;-89
2022/01/18 02:50:47;;;;;;;6.87;5.10;;;;;;;;;;5013462;28;20241;-91
2022/01/18 02:53:16;;;;;;;9.00;6.10;;;;;;;;;;5032955;28;20207;-89
2022/01/18 02:55:43;;;;;;;9.50;6.10;;;;;;;;;;5033647;28;20206;-89
2022/01/18 02:58:11;;;;;;;7.93;5.60;;;;;;;;;;5033987;28;20227;-90
2022/01/18 03:03:10;;;;;;;9.37;6.00;;;;;;;;;;5032758;28;20262;-89
2022/01/18 03:03:30;;;;;;;7.30;5.27;;;;;;;;;;5045951;28;20678;-89
2022/01/18 03:06:00;;;;;;;7.57;5.87;;;;;;;;;;5036573;28;20682;-89
2022/01/18 03:08:27;;;;;;;9.57;5.97;;;;;;;;;;5026982;28;20234;-90
2022/01/18 03:10:55;;;;;;;7.57;5.57;;;;;;;;;;5033420;28;20218;-90
2022/01/18 03:13:23;;;;;;;10.53;6.50;;;;;;;;;;5047042;28;20205;-89
2022/01/18 03:15:50;;;;;;;10.13;7.10;;;;;;;;;;5053774;28;20209;-90
2022/01/18 03:18:18;;;;;;;10.43;6.53;;;;;;;;;;5032897;28;20233;-90
2022/01/18 03:20:45;;;;;;;10.53;6.30;;;;;;;;;;5031904;28;20215;-90
2022/01/18 03:23:18;;;;;;;9.37;6.13;;;;;;;;;;5042022;28;20210;-89
2022/01/18 03:25:55;;;;;;;9.77;6.13;;;;;;;;;;5034325;28;20294;-90
2022/01/18 03:28:21;;;;;;;8.27;5.87;;;;;;;;;;5032235;28;20279;-90
2022/01/18 03:30:53;;;;;;;8.40;6.20;;;;;;;;;;5049123;28;20312;-89
2022/01/18 03:33:21;;;;;;;8.93;6.57;;;;;;;;;;5057237;28;20201;-90
2022/01/18 03:35:49;;;;;;;9.37;6.10;;;;;;;;;;5057932;28;20876;-89
2022/01/18 03:38:18;;;;;;;8.23;5.80;;;;;;;;;;5029099;28;20784;-90
2022/01/18 03:40:46;;;;;;;9.10;6.13;;;;;;;;;;5037256;28;20272;-89
2022/01/18 03:43:14;;;;;;;6.93;4.87;;;;;;;;;;5057550;28;20355;-89
2022/01/18 03:45:43;;;;;;;8.87;6.27;;;;;;;;;;5047806;28;20261;-89
2022/01/18 03:48:15;;;;;;;7.90;6.23;;;;;;;;;;5042215;28;20221;-90
2022/01/18 03:50:42;;;;;;;9.80;6.17;;;;;;;;;;5041290;28;20245;-89
2022/01/18 03:53:11;;;;;;;11.53;6.37;;;;;;;;;;5037478;28;20206;-90
2022/01/18 03:55:39;;;;;;;9.37;5.97;;;;;;;;;;5032703;28;20675;-91
2022/01/18 03:58:07;;;;;;;10.07;5.73;;;;;;;;;;5027725;28;20292;-89
2022/01/18 04:00:34;;;;;;;10.97;6.70;;;;;;;;;;5029939;28;20203;-90
2022/01/18 04:03:02;;;;;;;11.00;7.60;;;;;;;;;;5043333;28;20198;-89
2022/01/18 04:05:29;;;;;;;11.97;8.87;;;;;;;;;;5036546;28;20207;-89
2022/01/18 04:07:56;;;;;;;8.73;6.17;;;;;;;;;;5036504;28;20355;-89
2022/01/18 04:10:24;;;;;;;9.37;5.90;;;;;;;;;;5034831;28;20299;-89
2022/01/18 04:12:55;;;;;;;9.30;6.50;;;;;;;;;;5029264;28;20234;-90
2022/01/18 04:15:23;;;;;;;9.30;6.80;;;;;;;;;;5044872;28;20253;-89
2022/01/18 04:26:52;;;;;;;14.27;9.77;;;;;;;;;;5033639;28;20205;-89
2022/01/18 04:28:53;;;;;;;11.93;7.40;;;;;;;;;;5043257;28;20290;-89
2022/01/18 04:31:21;;;;;;;13.73;8.50;;;;;;;;;;5036673;28;20210;-90
2022/01/18 04:33:48;;;;;;;11.70;7.37;;;;;;;;;;5030579;28;20648;-89
2022/01/18 04:36:16;;;;;;;9.13;6.47;;;;;;;;;;5036327;28;20217;-90
2022/01/18 04:38:43;;;;;;;8.83;6.77;;;;;;;;;;5051655;28;20630;-89
2022/01/18 04:41:13;;;;;;;8.67;6.33;;;;;;;;;;5055110;28;20211;-89
2022/01/18 04:43:53;;;;;;;9.57;6.20;;;;;;;;;;5039879;28;20677;-89
2022/01/18 04:49:07;;;;;;;7.03;5.83;;;;;;;;;;5055412;28;20324;-89
2022/01/18 04:51:34;;;;;;;9.10;6.43;;;;;;;;;;5037538;28;20244;-89
2022/01/18 04:54:05;;;;;;;10.07;6.47;;;;;;;;;;5055811;28;20198;-90
2022/01/18 04:59:14;;;;;;;9.20;6.50;;;;;;;;;;5039796;28;20228;-89
2022/01/18 05:01:43;;;;;;;7.73;5.57;;;;;;;;;;5035423;28;20635;-90
2022/01/18 05:04:11;;;;;;;10.17;6.70;;;;;;;;;;5043335;28;20274;-89
2022/01/18 05:06:38;;;;;;;8.90;5.90;;;;;;;;;;5040218;28;20248;-89
2022/01/18 05:09:08;;;;;;;9.10;5.67;;;;;;;;;;5046766;28;20219;-90
2022/01/18 05:11:44;;;;;;;9.80;6.07;;;;;;;;;;5047659;28;20211;-89
2022/01/18 05:14:20;;;;;;;10.13;6.07;;;;;;;;;;5016202;28;20207;-89
2022/01/18 05:16:56;;;;;;;11.93;6.93;;;;;;;;;;5020232;28;20210;-89
2022/01/18 05:19:37;;;;;;;8.37;6.00;;;;;;;;;;5041505;28;20283;-89
2022/01/18 05:24:49;;;;;;;10.27;6.97;;;;;;;;;;5029669;28;20198;-91
2022/01/18 05:27:16;;;;;;;11.50;7.30;;;;;;;;;;5030824;28;20339;-89
2022/01/18 05:29:43;;;;;;;8.70;6.50;;;;;;;;;;5046186;28;20226;-89
2022/01/18 05:32:12;;;;;;;8.97;6.53;;;;;;;;;;5051297;28;20257;-89
2022/01/18 05:34:39;;;;;;;13.10;7.77;;;;;;;;;;5038659;28;20581;-89
2022/01/18 05:37:07;;;;;;;9.87;7.03;;;;;;;;;;5043721;28;20232;-89
2022/01/18 05:39:36;;;;;;;10.90;6.77;;;;;;;;;;5034719;28;20205;-89
2022/01/18 05:42:03;;;;;;;10.23;6.97;;;;;;;;;;5030711;28;20268;-90
2022/01/18 05:44:31;;;;;;;9.90;6.83;;;;;;;;;;5045778;28;20202;-89
2022/01/18 05:46:58;;;;;;;11.00;7.07;;;;;;;;;;5054346;28;20603;-90
2022/01/18 05:49:27;;;;;;;9.23;6.17;;;;;;;;;;5042720;28;20251;-89
2022/01/18 05:51:54;;;;;;;10.37;7.13;;;;;;;;;;5024324;28;20785;-89
2022/01/18 05:54:22;;;;;;;10.67;6.43;;;;;;;;;;5044578;28;20239;-89
2022/01/18 05:56:50;;;;;;;11.03;7.03;;;;;;;;;;5024689;28;20264;-90
2022/01/18 05:59:22;;;;;;;9.40;6.63;;;;;;;;;;5026162;28;20242;-89
2022/01/18 06:01:57;;;;;;;8.03;5.73;;;;;;;;;;5048766;28;20210;-90
2022/01/18 06:07:14;;;;;;;9.07;5.57;;;;;;;;;;5017784;28;20827;-89
2022/01/18 06:09:42;;;;;;;10.40;7.27;;;;;;;;;;5027801;28;20230;-89
2022/01/18 06:12:10;;;;;;;9.20;6.53;;;;;;;;;;5034117;28;20210;-90
2022/01/18 06:14:37;;;;;;;10.10;7.07;;;;;;;;;;5053823;28;20854;-89
2022/01/18 06:17:05;;;;;;;10.60;7.40;;;;;;;;;;5032877;28;20264;-90
2022/01/18 06:19:33;;;;;;;11.97;8.47;;;;;;;;;;5048067;28;20218;-89
2022/01/18 06:22:01;;;;;;;13.57;8.37;;;;;;;;;;5045630;28;20263;-91
2022/01/18 06:24:28;;;;;;;13.03;8.17;;;;;;;;;;5054701;28;20209;-90
2022/01/18 06:26:55;;;;;;;11.10;7.90;;;;;;;;;;5038471;28;20202;-90
2022/01/18 06:29:23;;;;;;;13.07;8.13;;;;;;;;;;5038208;28;20686;-89
2022/01/18 06:31:59;;;;;;;12.63;7.47;;;;;;;;;;5040130;28;20230;-90
2022/01/18 06:34:27;;;;;;;13.70;7.93;;;;;;;;;;5032344;28;20214;-90
2022/01/18 06:36:56;;;;;;;16.90;9.20;;;;;;;;;;5031729;28;20298;-89
2022/01/18 06:39:24;;;;;;;15.43;8.43;;;;;;;;;;5020208;28;20281;-90
2022/01/18 06:41:51;;;;;;;18.93;9.77;;;;;;;;;;5024845;28;20211;-90
2022/01/18 06:44:19;;;;;;;20.10;10.30;;;;;;;;;;5039814;28;20202;-88
2022/01/18 06:46:46;;;;;;;23.23;11.70;;;;;;;;;;5037571;28;20218;-89
2022/01/18 06:49:13;;;;;;;24.93;13.27;;;;;;;;;;5031248;28;20225;-89
2022/01/18 06:51:41;;;;;;;18.10;11.07;;;;;;;;;;5028096;28;20245;-89
2022/01/18 06:54:14;;;;;;;18.47;10.47;;;;;;;;;;5043921;28;20209;-88
2022/01/18 06:56:44;;;;;;;16.97;8.63;;;;;;;;;;5053068;28;20220;-89
2022/01/18 06:59:12;;;;;;;18.13;10.20;;;;;;;;;;5035760;28;20229;-88
2022/01/18 07:01:39;;;;;;;18.63;9.87;;;;;;;;;;5035555;28;20210;-89
2022/01/18 07:04:06;;;;;;;17.47;9.60;;;;;;;;;;5053083;28;20262;-89
2022/01/18 07:06:34;;;;;;;20.23;10.43;;;;;;;;;;5040756;28;20210;-88
2022/01/18 07:09:01;;;;;;;19.67;10.80;;;;;;;;;;5037272;28;20568;-89
2022/01/18 07:11:30;;;;;;;24.13;11.30;;;;;;;;;;5048436;28;20283;-89
2022/01/18 07:13:57;;;;;;;20.67;9.97;;;;;;;;;;5056789;28;20209;-89
2022/01/18 07:16:25;;;;;;;22.17;10.43;;;;;;;;;;5046781;28;20210;-89
2022/01/18 07:18:52;;;;;;;16.83;10.27;;;;;;;;;;5048562;28;20756;-89
2022/01/18 07:21:19;;;;;;;16.67;9.93;;;;;;;;;;5036807;28;20709;-90
2022/01/18 07:23:47;;;;;;;21.93;10.50;;;;;;;;;;5017019;28;20210;-90
2022/01/18 07:26:14;;;;;;;21.50;12.00;;;;;;;;;;5029096;28;20207;-89
2022/01/18 07:28:43;;;;;;;22.53;11.17;;;;;;;;;;5052144;28;20283;-89
2022/01/18 07:31:11;;;;;;;22.97;11.20;;;;;;;;;;5056670;28;20282;-88
2022/01/18 07:33:39;;;;;;;19.90;10.17;;;;;;;;;;5047020;28;20298;-88
2022/01/18 07:36:07;;;;;;;23.63;12.30;;;;;;;;;;5032625;28;20214;-89
2022/01/18 07:38:35;;;;;;;24.53;12.53;;;;;;;;;;5041756;28;20246;-88
2022/01/18 07:41:02;;;;;;;23.70;11.03;;;;;;;;;;5036743;28;20207;-90
2022/01/18 07:43:29;;;;;;;24.03;11.70;;;;;;;;;;5028443;28;20611;-91
2022/01/18 07:45:58;;;;;;;19.03;10.60;;;;;;;;;;5037411;28;20210;-89
2022/01/18 07:48:25;;;;;;;23.27;11.37;;;;;;;;;;5056489;28;20284;-89
2022/01/18 07:50:53;;;;;;;18.70;10.57;;;;;;;;;;5048213;28;20273;-89
2022/01/18 07:53:21;;;;;;;17.37;10.13;;;;;;;;;;5030581;28;20206;-89
2022/01/18 07:55:48;;;;;;;19.83;10.90;;;;;;;;;;5048806;28;20214;-89
2022/01/18 07:58:15;;;;;;;22.43;10.77;;;;;;;;;;5015932;28;20621;-89
2022/01/18 08:00:43;;;;;;;21.30;11.47;;;;;;;;;;5019040;28;20208;-89
2022/01/18 08:03:12;;;;;;;20.50;10.90;;;;;;;;;;5032020;28;20211;-90
2022/01/18 08:05:39;;;;;;;19.17;11.03;;;;;;;;;;5031101;28;20820;-89
2022/01/18 08:08:07;;;;;;;22.93;11.80;;;;;;;;;;5016276;28;20265;-89
2022/01/18 08:10:34;;;;;;;21.60;11.80;;;;;;;;;;5014876;28;20228;-89
2022/01/18 08:13:03;;;;;;;18.50;10.90;;;;;;;;;;5044694;28;20245;-88
2022/01/18 08:15:37;;;;;;;22.97;11.40;;;;;;;;;;5035225;28;20240;-88
2022/01/18 08:18:05;;;;;;;20.73;9.87;;;;;;;;;;5044717;28;20225;-88
2022/01/18 08:20:33;;;;;;;16.27;8.50;;;;;;;;;;5053582;28;20627;-88
2022/01/18 08:23:01;;;;;;;19.33;9.73;;;;;;;;;;5026876;28;20214;-89
2022/01/18 08:25:29;;;;;;;20.37;10.80;;;;;;;;;;5039467;28;20275;-88
2022/01/18 08:27:57;;;;;;;22.27;11.80;;;;;;;;;;5048221;28;20357;-88
2022/01/18 08:30:25;;;;;;;23.07;11.17;;;;;;;;;;5019040;28;20711;-88
2022/01/18 08:32:54;;;;;;;18.97;11.10;;;;;;;;;;5018258;28;20281;-88
2022/01/18 08:35:22;;;;;;;17.23;10.23;;;;;;;;;;5037305;28;20233;-88
2022/01/18 08:37:51;;;;;;;22.30;11.10;;;;;;;;;;5042420;28;20219;-88
2022/01/18 08:40:18;;;;;;;16.57;10.03;;;;;;;;;;5028843;28;20712;-88
2022/01/18 08:42:45;;;;;;;18.70;9.27;;;;;;;;;;5025324;28;20652;-90
2022/01/18 08:45:13;;;;;;;18.63;11.10;;;;;;;;;;5042328;28;20202;-88
2022/01/18 08:47:40;;;;;;;22.50;11.00;;;;;;;;;;5031594;28;20230;-88
2022/01/18 08:50:09;;;;;;;19.50;10.30;;;;;;;;;;5036903;28;20223;-88
2022/01/18 08:52:36;;;;;;;22.93;11.83;;;;;;;;;;5037493;28;20272;-88
2022/01/18 08:55:05;;;;;;;19.97;11.03;;;;;;;;;;5034248;28;20230;-88
2022/01/18 08:57:33;;;;;;;21.77;11.33;;;;;;;;;;5027534;28;20230;-88
2022/01/18 09:00:00;;;;;;;21.90;12.13;;;;;;;;;;5037289;28;20678;-89
2022/01/18 09:02:27;;;;;;;23.00;12.03;;;;;;;;;;5047903;28;20878;-88
2022/01/18 09:04:55;;;;;;;21.83;12.03;;;;;;;;;;5026954;28;20218;-89
2022/01/18 09:07:31;;;;;;;21.20;11.60;;;;;;;;;;5032268;28;20635;-88
2022/01/18 09:10:05;;;;;;;24.00;11.53;;;;;;;;;;5044358;28;20301;-89
2022/01/18 09:12:34;;;;;;;26.00;12.30;;;;;;;;;;5030777;28;20250;-88
2022/01/18 09:15:02;;;;;;;24.03;12.50;;;;;;;;;;5027700;28;20207;-89
2022/01/18 09:17:29;;;;;;;26.10;12.83;;;;;;;;;;5037270;28;20229;-89
2022/01/18 09:19:57;;;;;;;24.87;12.70;;;;;;;;;;5033435;28;20210;-89
2022/01/18 09:22:24;;;;;;;26.57;13.27;;;;;;;;;;5024914;28;20552;-88
2022/01/18 09:24:51;;;;;;;28.27;13.93;;;;;;;;;;5033892;28;20202;-89
2022/01/18 09:27:18;;;;;;;27.97;14.57;;;;;;;;;;5053217;28;20209;-88
2022/01/18 09:29:47;;;;;;;23.67;12.53;;;;;;;;;;5025056;28;20269;-88
2022/01/18 09:32:14;;;;;;;28.50;12.93;;;;;;;;;;5025372;28;20277;-88
2022/01/18 09:34:42;;;;;;;20.73;12.00;;;;;;;;;;5049148;28;20241;-88
2022/01/18 09:37:09;;;;;;;24.97;12.63;;;;;;;;;;5048118;28;20718;-89
2022/01/18 09:39:36;;;;;;;22.53;12.07;;;;;;;;;;5030449;28;20214;-88
2022/01/18 09:42:06;;;;;;;20.30;11.60;;;;;;;;;;5026510;28;20245;-88
2022/01/18 09:44:33;;;;;;;23.77;11.63;;;;;;;;;;5018395;28;20208;-88
2022/01/18 09:47:02;;;;;;;23.10;11.33;;;;;;;;;;5014711;28;20202;-88
2022/01/18 09:49:29;;;;;;;24.93;13.00;;;;;;;;;;5021000;28;20284;-88
2022/01/18 09:51:57;;;;;;;28.20;13.00;;;;;;;;;;5036429;28;20218;-88
2022/01/18 09:54:24;;;;;;;27.30;13.53;;;;;;;;;;5015878;28;20248;-88
2022/01/18 09:56:52;;;;;;;22.17;11.70;;;;;;;;;;5021166;28;20265;-88
2022/01/18 09:59:19;;;;;;;21.87;10.97;;;;;;;;;;5028897;28;20639;-88
2022/01/18 10:01:47;;;;;;;21.27;11.53;;;;;;;;;;5052858;28;20194;-88
2022/01/18 10:04:17;;;;;;;20.13;10.00;;;;;;;;;;5033720;28;20251;-88
2022/01/18 10:06:45;;;;;;;19.23;11.17;;;;;;;;;;5043958;28;20268;-88
2022/01/18 10:09:13;;;;;;;23.23;11.90;;;;;;;;;;5034188;28;20227;-88
2022/01/18 10:12:00;;;;;;;21.80;11.97;;;;;;;;;;5026368;28;20313;-88
2022/01/18 10:14:27;;;;;;;19.23;10.10;;;;;;;;;;5031559;28;20259;-88
2022/01/18 10:16:55;;;;;;;23.47;10.47;;;;;;;;;;5029913;28;20299;-88
2022/01/18 10:19:31;;;;;;;23.43;11.97;;;;;;;;;;5014070;28;20231;-88
2022/01/18 10:22:08;;;;;;;23.10;11.13;;;;;;;;;;5032704;28;20199;-88
2022/01/18 10:24:35;;;;;;;18.80;9.97;;;;;;;;;;5045554;28;20253;-88
2022/01/18 10:27:02;;;;;;;20.87;11.53;;;;;;;;;;5032207;28;20210;-88
2022/01/18 10:29:31;;;;;;;25.43;11.23;;;;;;;;;;5028497;28;20260;-88
2022/01/18 10:32:01;;;;;;;21.53;10.63;;;;;;;;;;5039527;28;20228;-88
2022/01/18 10:34:42;;;;;;;18.80;10.13;;;;;;;;;;5029382;28;20261;-88
2022/01/18 10:37:12;;;;;;;20.20;10.50;;;;;;;;;;5025325;28;20230;-88
2022/01/18 10:39:40;;;;;;;20.20;11.17;;;;;;;;;;5031517;28;20658;-88
2022/01/18 10:42:18;;;;;;;18.80;10.03;;;;;;;;;;5028781;28;20634;-88
2022/01/18 10:44:47;;;;;;;17.07;9.80;;;;;;;;;;5012932;28;20218;-89
2022/01/18 10:47:14;;;;;;;20.03;9.93;;;;;;;;;;5024941;28;20206;-88
2022/01/18 10:49:44;;;;;;;21.60;11.10;;;;;;;;;;5036444;28;20203;-88
2022/01/18 10:52:14;;;;;;;22.60;10.97;;;;;;;;;;5017486;28;20223;-88
2022/01/18 10:54:43;;;;;;;21.13;10.27;;;;;;;;;;5015259;28;20668;-88
2022/01/18 10:57:12;;;;;;;24.57;11.13;;;;;;;;;;5039277;28;20210;-88
2022/01/18 10:59:41;;;;;;;20.20;10.47;;;;;;;;;;5029644;28;20222;-88
2022/01/18 11:02:14;;;;;;;23.23;11.00;;;;;;;;;;5020213;28;20202;-88
2022/01/18 11:04:42;;;;;;;20.83;10.53;;;;;;;;;;5030647;28;20651;-89
2022/01/18 11:07:10;;;;;;;19.00;9.80;;;;;;;;;;5044959;28;20835;-88
2022/01/18 11:09:39;;;;;;;21.70;10.70;;;;;;;;;;5052286;28;20271;-88
2022/01/18 11:12:07;;;;;;;18.27;10.00;;;;;;;;;;5034452;28;20215;-88
2022/01/18 11:14:37;;;;;;;17.50;9.93;;;;;;;;;;5028039;28;20206;-88
2022/01/18 11:17:05;;;;;;;19.43;10.50;;;;;;;;;;5024362;28;20203;-88
2022/01/18 11:19:35;;;;;;;23.63;11.13;;;;;;;;;;5025533;28;20219;-88
2022/01/18 11:22:04;;;;;;;19.07;9.90;;;;;;;;;;5022504;28;20203;-88
2022/01/18 11:24:31;;;;;;;22.47;10.10;;;;;;;;;;5046215;28;20271;-88
2022/01/18 11:27:01;;;;;;;17.77;9.90;;;;;;;;;;5033471;28;20304;-88
2022/01/18 11:29:29;;;;;;;19.23;10.10;;;;;;;;;;5029411;28;20651;-88
2022/01/18 11:31:57;;;;;;;18.77;9.47;;;;;;;;;;5025410;28;20223;-88
2022/01/18 11:34:31;;;;;;;14.93;8.07;;;;;;;;;;5034370;28;20331;-87
2022/01/18 11:37:01;;;;;;;17.03;9.67;;;;;;;;;;5034470;28;20207;-88
2022/01/18 11:39:30;;;;;;;15.53;8.40;;;;;;;;;;5031708;28;20276;-88
2022/01/18 11:42:07;;;;;;;16.83;9.43;;;;;;;;;;5017086;28;20845;-89
2022/01/18 11:44:35;;;;;;;17.77;8.43;;;;;;;;;;5034529;28;20203;-88
2022/01/18 11:47:03;;;;;;;10.63;6.53;;;;;;;;;;5049581;28;20206;-88
2022/01/18 11:49:33;;;;;;;10.77;6.63;;;;;;;;;;5030370;28;20707;-87
2022/01/18 11:52:03;;;;;;;14.03;6.63;;;;;;;;;;5038294;28;20226;-87
2022/01/18 11:54:39;;;;;;;13.77;7.10;;;;;;;;;;5035933;28;20207;-88
2022/01/18 11:57:34;;;;;;;8.87;4.93;;;;;;;;;;5032352;28;20211;-88
2022/01/18 12:00:21;;;;;;;9.90;6.00;;;;;;;;;;5035059;28;20297;-88
2022/01/18 12:02:52;;;;;;;13.23;6.43;;;;;;;;;;5043733;28;20297;-88
2022/01/18 12:05:20;;;;;;;12.87;6.97;;;;;;;;;;5042203;28;20199;-88
2022/01/18 12:07:49;;;;;;;10.40;6.03;;;;;;;;;;5041050;28;21098;-88
2022/01/18 12:10:32;;;;;;;11.83;5.33;;;;;;;;;;5046937;28;20225;-88
2022/01/18 12:13:01;;;;;;;10.10;4.80;;;;;;;;;;5054660;28;20226;-88
2022/01/18 12:15:58;;;;;;;9.33;4.90;;;;;;;;;;5033120;28;20304;-88
2022/01/18 12:18:27;;;;;;;9.90;5.17;;;;;;;;;;4959139;28;20299;-87
2022/01/18 12:20:55;;;;;;;10.40;5.03;;;;;;;;;;5020193;28;20225;-88
2022/01/18 12:23:23;;;;;;;9.20;5.00;;;;;;;;;;5016353;28;20676;-88
2022/01/18 12:25:57;;;;;;;8.73;5.20;;;;;;;;;;5038629;28;20211;-89
2022/01/18 12:28:52;;;;;;;12.13;5.87;;;;;;;;;;5046299;28;20213;-87
2022/01/18 12:31:52;;;;;;;7.87;4.97;;;;;;;;;;5055030;28;20263;-88
2022/01/18 12:34:34;;;;;;;8.30;5.13;;;;;;;;;;5034984;28;20217;-87
2022/01/18 12:37:21;;;;;;;9.90;5.23;;;;;;;;;;5043467;28;20215;-88
2022/01/18 12:40:05;;;;;;;10.33;5.23;;;;;;;;;;5034984;28;20213;-88
2022/01/18 12:45:21;;;;;;;11.87;5.93;;;;;;;;;;5027967;28;20661;-88
2022/01/18 12:47:51;;;;;;;8.57;5.33;;;;;;;;;;5050581;28;20236;-89
2022/01/18 12:50:22;;;;;;;11.07;4.83;;;;;;;;;;5045958;28;20227;-88
2022/01/18 12:52:50;;;;;;;11.90;4.50;;;;;;;;;;5019564;28;20232;-89
2022/01/18 12:55:27;;;;;;;5.60;3.70;;;;;;;;;;5037840;28;20256;-88
2022/01/18 12:58:02;;;;;;;5.67;3.77;;;;;;;;;;5044767;28;20714;-88
2022/01/18 13:00:29;;;;;;;7.83;4.63;;;;;;;;;;5034704;28;20658;-88
2022/01/18 13:03:00;;;;;;;6.23;4.07;;;;;;;;;;5025105;28;20261;-88
2022/01/18 13:05:36;;;;;;;6.43;3.77;;;;;;;;;;5030957;28;20206;-88
2022/01/18 13:08:04;;;;;;;6.30;3.60;;;;;;;;;;5032405;28;20226;-88
2022/01/18 13:10:35;;;;;;;6.13;3.20;;;;;;;;;;5031670;28;20213;-88
2022/01/18 13:13:03;;;;;;;7.87;3.40;;;;;;;;;;5043288;28;20276;-87
2022/01/18 13:22:55;;;;;;;5.47;3.67;;;;;;;;;;5054060;28;20198;-88
2022/01/18 13:25:01;;;;;;;5.30;3.57;;;;;;;;;;5033405;28;20212;-87
2022/01/18 13:27:33;;;;;;;4.57;3.13;;;;;;;;;;5030486;28;20240;-88
2022/01/18 13:30:07;;;;;;;6.47;3.40;;;;;;;;;;5044037;28;20202;-88
2022/01/18 13:32:36;;;;;;;5.13;3.03;;;;;;;;;;5033729;28;20218;-87
2022/01/18 13:35:05;;;;;;;6.67;3.30;;;;;;;;;;5023979;28;20214;-88
2022/01/18 13:37:34;;;;;;;4.63;3.00;;;;;;;;;;5046492;28;20309;-87
2022/01/18 13:40:03;;;;;;;5.97;3.20;;;;;;;;;;5035375;28;20298;-88
2022/01/18 13:42:35;;;;;;;6.57;3.50;;;;;;;;;;5020878;28;20270;-88
2022/01/18 13:45:17;;;;;;;7.77;4.17;;;;;;;;;;5030732;28;20727;-88
2022/01/18 13:47:46;;;;;;;3.97;3.03;;;;;;;;;;5048248;28;20417;-88
2022/01/18 13:50:32;;;;;;;7.90;3.20;;;;;;;;;;5053359;28;20240;-87
2022/01/18 13:53:01;;;;;;;4.40;3.00;;;;;;;;;;5032684;28;20222;-88
2022/01/18 13:55:29;;;;;;;4.27;3.07;;;;;;;;;;5044218;28;20835;-88
2022/01/18 13:57:57;;;;;;;6.93;3.33;;;;;;;;;;5035356;28;20236;-88
2022/01/18 14:00:24;;;;;;;5.97;3.40;;;;;;;;;;5033575;28;20233;-88
2022/01/18 14:02:51;;;;;;;4.57;2.73;;;;;;;;;;5032782;28;20267;-89
2022/01/18 14:05:21;;;;;;;5.60;3.20;;;;;;;;;;5036556;28;20198;-88
2022/01/18 14:07:48;;;;;;;5.67;2.80;;;;;;;;;;5045627;28;20221;-88
2022/01/18 14:10:22;;;;;;;3.73;3.17;;;;;;;;;;5028087;28;20279;-88
2022/01/18 14:12:50;;;;;;;5.57;2.57;;;;;;;;;;5037356;28;20242;-88
2022/01/18 14:15:32;;;;;;;5.33;3.03;;;;;;;;;;5032738;28;20229;-87
2022/01/18 14:18:11;;;;;;;6.23;3.70;;;;;;;;;;5030587;28;20643;-87
2022/01/18 14:20:39;;;;;;;8.10;4.57;;;;;;;;;;5022557;28;20227;-88
2022/01/18 14:23:18;;;;;;;3.73;2.87;;;;;;;;;;5039334;28;20596;-87
2022/01/18 14:25:48;;;;;;;8.00;2.63;;;;;;;;;;5028722;28;20206;-88
2022/01/18 14:28:17;;;;;;;7.80;4.63;;;;;;;;;;5022761;28;20346;-88
2022/01/18 14:30:45;;;;;;;9.47;5.43;;;;;;;;;;5023534;28;20206;-88
2022/01/18 14:33:13;;;;;;;9.87;5.10;;;;;;;;;;5052491;28;20214;-89
2022/01/18 14:35:41;;;;;;;7.43;3.00;;;;;;;;;;5052550;28;20221;-88
2022/01/18 14:38:10;;;;;;;5.03;3.30;;;;;;;;;;5031214;28;20234;-88
2022/01/18 14:40:39;;;;;;;12.03;5.23;;;;;;;;;;5036970;28;20215;-88
2022/01/18 14:43:13;;;;;;;7.73;3.37;;;;;;;;;;5051046;28;20194;-88
2022/01/18 14:45:57;;;;;;;5.40;2.93;;;;;;;;;;5031364;28;20659;-89
2022/01/18 14:48:25;;;;;;;4.53;2.53;;;;;;;;;;5025299;28;20226;-89
2022/01/18 14:50:53;;;;;;;6.23;2.77;;;;;;;;;;5049478;28;20609;-88
2022/01/18 14:53:20;;;;;;;5.37;2.30;;;;;;;;;;5050361;28;20279;-89
2022/01/18 14:55:48;;;;;;;8.60;2.60;;;;;;;;;;5021162;28;20207;-88
2022/01/18 14:58:17;;;;;;;3.33;2.40;;;;;;;;;;5020743;28;20253;-88
2022/01/18 15:00:44;;;;;;;6.63;2.73;;;;;;;;;;5039232;28;20293;-88
2022/01/18 15:03:11;;;;;;;5.77;2.63;;;;;;;;;;5042522;28;20198;-89
2022/01/18 15:05:39;;;;;;;9.43;2.57;;;;;;;;;;5038601;28;20207;-89
2022/01/18 15:08:07;;;;;;;7.03;2.53;;;;;;;;;;5032488;28;20280;-89
2022/01/18 15:10:35;;;;;;;4.80;3.53;;;;;;;;;;5031997;28;20207;-89
2022/01/18 15:13:03;;;;;;;3.00;2.43;;;;;;;;;;5024803;28;20238;-89
2022/01/18 15:15:32;;;;;;;5.47;2.57;;;;;;;;;;5036305;28;20294;-89
2022/01/18 15:17:59;;;;;;;5.77;2.17;;;;;;;;;;5031652;28;20304;-88
2022/01/18 15:20:27;;;;;;;5.83;2.87;;;;;;;;;;5026063;28;20202;-88
2022/01/18 15:22:55;;;;;;;3.70;2.23;;;;;;;;;;5027085;28;20231;-88
2022/01/18 15:25:23;;;;;;;2.87;2.43;;;;;;;;;;5046292;28;20635;-89
2022/01/18 15:27:50;;;;;;;3.07;2.50;;;;;;;;;;5050055;28;20218;-90
2022/01/18 15:30:18;;;;;;;4.60;2.93;;;;;;;;;;5033007;28;20272;-89
2022/01/18 15:32:48;;;;;;;4.73;2.37;;;;;;;;;;5047761;28;20221;-89
2022/01/18 15:35:16;;;;;;;5.10;2.80;;;;;;;;;;5015839;28;20322;-89
2022/01/18 15:37:43;;;;;;;6.83;1.90;;;;;;;;;;5014970;28;20238;-88
2022/01/18 15:40:11;;;;;;;4.67;3.03;;;;;;;;;;5035371;28;20202;-89